Monitor — WCX9104 — position and weather

sailwx.info

Track history (hours):
 
Tides and Currents Weather Stations Pressure Air Temp Water Temp Dewpoint Dewpoint Depression Visibility Wind Speed Wind Dir Waves Ship Positions

Monitor

Owner: CROWLEY PUERTO RICO SERVICES INC, Seattle, WA. More information available from US FCC via Universal Licensing System and Coast Guard Vessel Documentation Center.

Last reported at 2016-Apr-08 05:21 UTC. Time now 2016-Apr-30 11:18 UTC.
Position N 18°29' W 066°08'.
Warning: this ship's position is 22 days out of date.

Length 40 m; draft 5.8 m.

Type: Towing. MMSI: 366766920.

Date/timePositionNaut miles runAvg speedWind from/ knotsBaromVisibWave heightAir tempDewpointWater temp
2016-Apr-08 05:21N 18°29' W 066°08'2 0.3
2016-Apr-07 20:33N 18°27' W 066°06'0 0.0
2016-Apr-07 19:27N 18°27' W 066°06'0 0.0
2016-Apr-07 18:27N 18°27' W 066°06'0 0.0
2016-Apr-07 17:03N 18°27' W 066°06'0 0.0
2016-Apr-07 16:33N 18°27' W 066°06'2 2.1
2016-Apr-07 15:34N 18°29' W 066°08'  
2016-Mar-31 17:33N 38°35' W 074°51'8 8.4
2016-Mar-31 16:33N 38°42' W 074°58'8 8.3
2016-Mar-31 15:33N 38°49' W 075°04'7 7.3
2016-Mar-31 14:33N 38°56' W 075°06'9 9.0
2016-Mar-31 13:32N 39°04' W 075°11'1010.0
2016-Mar-31 12:33N 39°13' W 075°17'1010.3
2016-Mar-31 11:33N 39°21' W 075°26'9 9.0
2016-Mar-31 10:34N 39°27' W 075°34'8 7.9
2016-Mar-31 09:34N 39°35' W 075°34'7 6.6
2016-Mar-31 08:34N 39°42' W 075°31'7 7.1
2016-Mar-31 07:34N 39°48' W 075°26'7 7.4
2016-Mar-31 06:34N 39°51' W 075°18'8 8.3
2016-Mar-31 05:33N 39°54' W 075°08'4 3.8
2016-Mar-31 04:33N 39°58' W 075°07'0 0.1
2016-Mar-31 03:33N 39°58' W 075°07'0 0.0
2016-Mar-31 02:33N 39°58' W 075°07'1 1.1
2016-Mar-31 01:33N 39°59' W 075°05'0 0.0
2016-Mar-31 00:33N 39°59' W 075°05'0 0.0
2016-Mar-30 23:33N 39°59' W 075°05'0 0.0
2016-Mar-30 22:30N 39°59' W 075°05'0 0.0
2016-Mar-30 21:33N 39°59' W 075°05'0 0.0
2016-Mar-30 20:33N 39°59' W 075°05'0 0.0
2016-Mar-30 19:33N 39°59' W 075°05'0 0.0
2016-Mar-30 18:33N 39°59' W 075°05'0 0.0
2016-Mar-30 17:33N 39°59' W 075°05'0 0.0
2016-Mar-30 16:33N 39°59' W 075°05'0 0.0
2016-Mar-30 15:33N 39°59' W 075°05'0 0.0
2016-Mar-30 14:33N 39°59' W 075°05'0 0.0
2016-Mar-30 13:33N 39°59' W 075°05'0 0.0
2016-Mar-30 12:33N 39°59' W 075°05'0 0.0
2016-Mar-30 11:33N 39°59' W 075°05'0 0.0
2016-Mar-30 10:33N 39°59' W 075°05'0 0.0
2016-Mar-30 09:33N 39°59' W 075°05'0 0.0
2016-Mar-30 08:30N 39°59' W 075°05'0 0.0
2016-Mar-30 07:33N 39°59' W 075°05'0 0.0
2016-Mar-30 06:33N 39°59' W 075°05'0 0.0
2016-Mar-30 05:33N 39°59' W 075°05'1 1.1
2016-Mar-30 04:34N 39°58' W 075°07'0 0.2
2016-Mar-30 03:34N 39°58' W 075°07'4 3.9
2016-Mar-30 02:33N 39°54' W 075°08'7 7.1
2016-Mar-30 01:33N 39°51' W 075°16'7 7.2
2016-Mar-30 00:33N 39°48' W 075°25'8 7.6
2016-Mar-29 23:33N 39°42' W 075°31'7 7.2
2016-Mar-29 22:34N 39°35' W 075°34'8 7.9
2016-Mar-29 21:33N 39°28' W 075°34'8 7.6
2016-Mar-29 20:33N 39°22' W 075°27'8 8.3
2016-Mar-29 19:34N 39°16' W 075°20'9 8.5
2016-Mar-29 18:32N 39°08' W 075°14'9 8.5
2016-Mar-29 17:32N 39°01' W 075°09'8 8.4
2016-Mar-29 16:33N 38°53' W 075°05'8 8.0
2016-Mar-29 15:34N 38°46' W 074°60'9 8.3
2016-Mar-29 14:31N 38°40' W 074°52'  
Track history (hours):
 
Tides and Currents Weather Stations Pressure Air Temp Water Temp Dewpoint Dewpoint Depression Visibility Wind Speed Wind Dir Waves Ship Positions

Monitor

Owner: CROWLEY PUERTO RICO SERVICES INC, Seattle, WA. More information available from US FCC via Universal Licensing System and Coast Guard Vessel Documentation Center.

Last reported at 2016-Apr-08 05:21 UTC. Time now 2016-Apr-30 11:18 UTC.
Position N 18°29' W 066°08'.
Warning: this ship's position is 22 days out of date.

Length 40 m; draft 5.8 m.

Type: Towing. MMSI: 366766920.

Date/timePositionNaut miles runAvg speedWind from/ knotsBaromVisibWave heightAir tempDewpointWater temp
2016-Apr-08 05:21N 18°29' W 066°08'2 0.3
2016-Apr-07 20:33N 18°27' W 066°06'0 0.0
2016-Apr-07 19:27N 18°27' W 066°06'0 0.0
2016-Apr-07 18:27N 18°27' W 066°06'0 0.0
2016-Apr-07 17:03N 18°27' W 066°06'0 0.0
2016-Apr-07 16:33N 18°27' W 066°06'2 2.1
2016-Apr-07 15:34N 18°29' W 066°08'  
2016-Mar-31 17:33N 38°35' W 074°51'8 8.4
2016-Mar-31 16:33N 38°42' W 074°58'8 8.3
2016-Mar-31 15:33N 38°49' W 075°04'7 7.3
2016-Mar-31 14:33N 38°56' W 075°06'9 9.0
2016-Mar-31 13:32N 39°04' W 075°11'1010.0
2016-Mar-31 12:33N 39°13' W 075°17'1010.3
2016-Mar-31 11:33N 39°21' W 075°26'9 9.0
2016-Mar-31 10:34N 39°27' W 075°34'8 7.9
2016-Mar-31 09:34N 39°35' W 075°34'7 6.6
2016-Mar-31 08:34N 39°42' W 075°31'7 7.1
2016-Mar-31 07:34N 39°48' W 075°26'7 7.4
2016-Mar-31 06:34N 39°51' W 075°18'8 8.3
2016-Mar-31 05:33N 39°54' W 075°08'4 3.8
2016-Mar-31 04:33N 39°58' W 075°07'0 0.1
2016-Mar-31 03:33N 39°58' W 075°07'0 0.0
2016-Mar-31 02:33N 39°58' W 075°07'1 1.1
2016-Mar-31 01:33N 39°59' W 075°05'0 0.0
2016-Mar-31 00:33N 39°59' W 075°05'0 0.0
2016-Mar-30 23:33N 39°59' W 075°05'0 0.0
2016-Mar-30 22:30N 39°59' W 075°05'0 0.0
2016-Mar-30 21:33N 39°59' W 075°05'0 0.0
2016-Mar-30 20:33N 39°59' W 075°05'0 0.0
2016-Mar-30 19:33N 39°59' W 075°05'0 0.0
2016-Mar-30 18:33N 39°59' W 075°05'0 0.0
2016-Mar-30 17:33N 39°59' W 075°05'0 0.0
2016-Mar-30 16:33N 39°59' W 075°05'0 0.0
2016-Mar-30 15:33N 39°59' W 075°05'0 0.0
2016-Mar-30 14:33N 39°59' W 075°05'0 0.0
2016-Mar-30 13:33N 39°59' W 075°05'0 0.0
2016-Mar-30 12:33N 39°59' W 075°05'0 0.0
2016-Mar-30 11:33N 39°59' W 075°05'0 0.0
2016-Mar-30 10:33N 39°59' W 075°05'0 0.0
2016-Mar-30 09:33N 39°59' W 075°05'0 0.0
2016-Mar-30 08:30N 39°59' W 075°05'0 0.0
2016-Mar-30 07:33N 39°59' W 075°05'0 0.0
2016-Mar-30 06:33N 39°59' W 075°05'0 0.0
2016-Mar-30 05:33N 39°59' W 075°05'1 1.1
2016-Mar-30 04:34N 39°58' W 075°07'0 0.2
2016-Mar-30 03:34N 39°58' W 075°07'4 3.9
2016-Mar-30 02:33N 39°54' W 075°08'7 7.1
2016-Mar-30 01:33N 39°51' W 075°16'7 7.2
2016-Mar-30 00:33N 39°48' W 075°25'8 7.6
2016-Mar-29 23:33N 39°42' W 075°31'7 7.2
2016-Mar-29 22:34N 39°35' W 075°34'8 7.9
2016-Mar-29 21:33N 39°28' W 075°34'8 7.6
2016-Mar-29 20:33N 39°22' W 075°27'8 8.3
2016-Mar-29 19:34N 39°16' W 075°20'9 8.5
2016-Mar-29 18:32N 39°08' W 075°14'9 8.5
2016-Mar-29 17:32N 39°01' W 075°09'8 8.4
2016-Mar-29 16:33N 38°53' W 075°05'8 8.0
2016-Mar-29 15:34N 38°46' W 074°60'9 8.3
2016-Mar-29 14:31N 38°40' W 074°52'  

Dump ship's entire track history